sensor_id;sensor_type;location;lat;lon;timestamp;temperature;humidity
79762;DHT22;69249;42.122;24.734;2023-07-09T00:01:15;24.80;44.20
79762;DHT22;69249;42.122;24.734;2023-07-09T00:03:43;24.90;43.80
79762;DHT22;69249;42.122;24.734;2023-07-09T00:06:09;24.80;44.30
79762;DHT22;69249;42.122;24.734;2023-07-09T00:08:43;24.70;44.60
79762;DHT22;69249;42.122;24.734;2023-07-09T00:11:10;24.70;44.50
79762;DHT22;69249;42.122;24.734;2023-07-09T00:13:36;24.50;44.70
79762;DHT22;69249;42.122;24.734;2023-07-09T00:16:07;24.50;44.70
79762;DHT22;69249;42.122;24.734;2023-07-09T00:18:36;24.40;44.70
79762;DHT22;69249;42.122;24.734;2023-07-09T00:21:01;24.30;45.10
79762;DHT22;69249;42.122;24.734;2023-07-09T00:23:27;24.30;45.00
79762;DHT22;69249;42.122;24.734;2023-07-09T00:25:53;24.30;45.00
79762;DHT22;69249;42.122;24.734;2023-07-09T00:28:19;24.20;44.80
79762;DHT22;69249;42.122;24.734;2023-07-09T00:30:46;24.20;44.50
79762;DHT22;69249;42.122;24.734;2023-07-09T00:33:14;24.20;44.50
79762;DHT22;69249;42.122;24.734;2023-07-09T00:35:44;24.40;44.00
79762;DHT22;69249;42.122;24.734;2023-07-09T00:38:21;24.40;43.80
79762;DHT22;69249;42.122;24.734;2023-07-09T00:43:31;24.30;43.80
79762;DHT22;69249;42.122;24.734;2023-07-09T00:49:07;24.20;43.80
79762;DHT22;69249;42.122;24.734;2023-07-09T00:51:38;24.10;43.80
79762;DHT22;69249;42.122;24.734;2023-07-09T00:54:32;24.10;44.00
79762;DHT22;69249;42.122;24.734;2023-07-09T00:57:09;24.20;43.90
79762;DHT22;69249;42.122;24.734;2023-07-09T00:59:35;24.30;43.90
79762;DHT22;69249;42.122;24.734;2023-07-09T01:02:02;24.20;43.90
79762;DHT22;69249;42.122;24.734;2023-07-09T01:04:28;24.30;43.50
79762;DHT22;69249;42.122;24.734;2023-07-09T01:06:55;24.20;43.70
79762;DHT22;69249;42.122;24.734;2023-07-09T01:09:23;24.20;43.80
79762;DHT22;69249;42.122;24.734;2023-07-09T01:11:49;24.30;43.80
79762;DHT22;69249;42.122;24.734;2023-07-09T01:14:17;24.20;43.80
79762;DHT22;69249;42.122;24.734;2023-07-09T01:16:49;24.20;43.60
79762;DHT22;69249;42.122;24.734;2023-07-09T01:19:23;24.10;44.00
79762;DHT22;69249;42.122;24.734;2023-07-09T01:21:58;24.00;44.20
79762;DHT22;69249;42.122;24.734;2023-07-09T01:27:34;24.00;44.20
79762;DHT22;69249;42.122;24.734;2023-07-09T01:30:03;24.00;44.20
79762;DHT22;69249;42.122;24.734;2023-07-09T01:32:31;24.00;44.30
79762;DHT22;69249;42.122;24.734;2023-07-09T01:35:03;24.00;44.20
79762;DHT22;69249;42.122;24.734;2023-07-09T01:37:36;24.00;44.00
79762;DHT22;69249;42.122;24.734;2023-07-09T01:40:04;24.00;44.10
79762;DHT22;69249;42.122;24.734;2023-07-09T01:42:31;23.90;44.00
79762;DHT22;69249;42.122;24.734;2023-07-09T01:44:57;23.90;43.80
79762;DHT22;69249;42.122;24.734;2023-07-09T01:47:23;23.90;44.00
79762;DHT22;69249;42.122;24.734;2023-07-09T01:49:50;23.90;43.90
79762;DHT22;69249;42.122;24.734;2023-07-09T01:52:18;23.90;43.60
79762;DHT22;69249;42.122;24.734;2023-07-09T01:54:44;23.80;45.20
79762;DHT22;69249;42.122;24.734;2023-07-09T01:57:23;23.70;44.10
79762;DHT22;69249;42.122;24.734;2023-07-09T01:59:53;23.80;44.00
79762;DHT22;69249;42.122;24.734;2023-07-09T02:02:22;23.90;43.60
79762;DHT22;69249;42.122;24.734;2023-07-09T02:04:50;23.90;43.70
79762;DHT22;69249;42.122;24.734;2023-07-09T02:07:16;23.80;43.70
79762;DHT22;69249;42.122;24.734;2023-07-09T02:09:42;23.90;43.60
79762;DHT22;69249;42.122;24.734;2023-07-09T02:12:09;23.80;43.80
79762;DHT22;69249;42.122;24.734;2023-07-09T02:14:36;23.70;44.00
79762;DHT22;69249;42.122;24.734;2023-07-09T02:17:02;23.60;44.60
79762;DHT22;69249;42.122;24.734;2023-07-09T02:19:29;23.60;45.50
79762;DHT22;69249;42.122;24.734;2023-07-09T02:21:55;23.70;44.20
79762;DHT22;69249;42.122;24.734;2023-07-09T02:24:21;23.60;44.50
79762;DHT22;69249;42.122;24.734;2023-07-09T02:26:51;23.70;44.40
79762;DHT22;69249;42.122;24.734;2023-07-09T02:29:17;23.70;44.10
79762;DHT22;69249;42.122;24.734;2023-07-09T02:31:44;23.70;43.70
79762;DHT22;69249;42.122;24.734;2023-07-09T02:34:09;23.80;43.60
79762;DHT22;69249;42.122;24.734;2023-07-09T02:36:35;23.70;43.70
79762;DHT22;69249;42.122;24.734;2023-07-09T02:39:01;23.70;43.70
79762;DHT22;69249;42.122;24.734;2023-07-09T02:41:26;23.70;43.50
79762;DHT22;69249;42.122;24.734;2023-07-09T02:43:52;23.70;43.70
79762;DHT22;69249;42.122;24.734;2023-07-09T02:46:18;23.80;43.70
79762;DHT22;69249;42.122;24.734;2023-07-09T02:48:43;23.70;43.90
79762;DHT22;69249;42.122;24.734;2023-07-09T02:51:09;23.60;44.10
79762;DHT22;69249;42.122;24.734;2023-07-09T02:53:35;23.60;44.30
79762;DHT22;69249;42.122;24.734;2023-07-09T02:56:00;23.60;44.30
79762;DHT22;69249;42.122;24.734;2023-07-09T02:58:26;23.50;44.60
79762;DHT22;69249;42.122;24.734;2023-07-09T03:00:52;23.50;44.70
79762;DHT22;69249;42.122;24.734;2023-07-09T03:03:19;23.50;44.70
79762;DHT22;69249;42.122;24.734;2023-07-09T03:05:47;23.50;44.70
79762;DHT22;69249;42.122;24.734;2023-07-09T03:08:14;23.60;44.50
79762;DHT22;69249;42.122;24.734;2023-07-09T03:10:41;23.60;44.20
79762;DHT22;69249;42.122;24.734;2023-07-09T03:13:06;23.50;44.10
79762;DHT22;69249;42.122;24.734;2023-07-09T03:15:32;23.60;44.00
79762;DHT22;69249;42.122;24.734;2023-07-09T03:17:58;23.60;44.00
79762;DHT22;69249;42.122;24.734;2023-07-09T03:20:24;23.60;44.10
79762;DHT22;69249;42.122;24.734;2023-07-09T03:22:50;23.50;44.40
79762;DHT22;69249;42.122;24.734;2023-07-09T03:25:16;23.60;44.00
79762;DHT22;69249;42.122;24.734;2023-07-09T03:27:42;23.60;43.90
79762;DHT22;69249;42.122;24.734;2023-07-09T03:30:08;23.60;43.70
79762;DHT22;69249;42.122;24.734;2023-07-09T03:32:34;23.60;43.60
79762;DHT22;69249;42.122;24.734;2023-07-09T03:34:59;23.70;43.30
79762;DHT22;69249;42.122;24.734;2023-07-09T03:37:25;23.80;43.00
79762;DHT22;69249;42.122;24.734;2023-07-09T03:39:51;23.80;43.20
79762;DHT22;69249;42.122;24.734;2023-07-09T03:42:16;23.70;43.30
79762;DHT22;69249;42.122;24.734;2023-07-09T03:44:42;23.70;43.30
79762;DHT22;69249;42.122;24.734;2023-07-09T03:47:08;23.60;43.50
79762;DHT22;69249;42.122;24.734;2023-07-09T03:49:36;23.70;43.50
79762;DHT22;69249;42.122;24.734;2023-07-09T03:52:01;23.80;43.00
79762;DHT22;69249;42.122;24.734;2023-07-09T03:54:28;23.90;42.50
79762;DHT22;69249;42.122;24.734;2023-07-09T03:56:53;24.00;42.80
79762;DHT22;69249;42.122;24.734;2023-07-09T03:59:19;23.90;42.80
79762;DHT22;69249;42.122;24.734;2023-07-09T04:01:45;23.90;42.50
79762;DHT22;69249;42.122;24.734;2023-07-09T04:04:12;23.90;42.70
79762;DHT22;69249;42.122;24.734;2023-07-09T04:06:37;23.90;42.40
79762;DHT22;69249;42.122;24.734;2023-07-09T04:09:03;24.00;42.20
79762;DHT22;69249;42.122;24.734;2023-07-09T04:11:29;24.10;43.00
79762;DHT22;69249;42.122;24.734;2023-07-09T04:13:55;24.10;41.80
79762;DHT22;69249;42.122;24.734;2023-07-09T04:16:20;24.30;41.10
79762;DHT22;69249;42.122;24.734;2023-07-09T04:18:46;24.20;41.50
79762;DHT22;69249;42.122;24.734;2023-07-09T04:21:12;24.40;41.00
79762;DHT22;69249;42.122;24.734;2023-07-09T04:23:37;24.40;40.70
79762;DHT22;69249;42.122;24.734;2023-07-09T04:26:03;24.40;41.10
79762;DHT22;69249;42.122;24.734;2023-07-09T04:28:30;24.60;40.90
79762;DHT22;69249;42.122;24.734;2023-07-09T04:30:56;24.50;40.90
79762;DHT22;69249;42.122;24.734;2023-07-09T04:33:22;24.50;41.40
79762;DHT22;69249;42.122;24.734;2023-07-09T04:35:48;24.50;41.20
79762;DHT22;69249;42.122;24.734;2023-07-09T04:38:15;24.70;41.00
79762;DHT22;69249;42.122;24.734;2023-07-09T04:40:41;24.70;41.10
79762;DHT22;69249;42.122;24.734;2023-07-09T04:43:07;24.90;40.60
79762;DHT22;69249;42.122;24.734;2023-07-09T04:45:33;25.00;40.50
79762;DHT22;69249;42.122;24.734;2023-07-09T04:47:59;25.10;39.70
79762;DHT22;69249;42.122;24.734;2023-07-09T04:50:24;25.00;40.20
79762;DHT22;69249;42.122;24.734;2023-07-09T04:52:50;25.10;39.60
79762;DHT22;69249;42.122;24.734;2023-07-09T04:55:17;25.20;38.80
79762;DHT22;69249;42.122;24.734;2023-07-09T04:57:44;25.20;39.50
79762;DHT22;69249;42.122;24.734;2023-07-09T05:00:10;25.20;39.30
79762;DHT22;69249;42.122;24.734;2023-07-09T05:02:36;25.20;38.80
79762;DHT22;69249;42.122;24.734;2023-07-09T05:05:02;25.30;39.20
79762;DHT22;69249;42.122;24.734;2023-07-09T05:07:28;25.30;38.50
79762;DHT22;69249;42.122;24.734;2023-07-09T05:09:54;25.20;38.60
79762;DHT22;69249;42.122;24.734;2023-07-09T05:12:19;25.40;38.10
79762;DHT22;69249;42.122;24.734;2023-07-09T05:14:46;25.50;38.50
79762;DHT22;69249;42.122;24.734;2023-07-09T05:17:12;25.40;38.70
79762;DHT22;69249;42.122;24.734;2023-07-09T05:19:37;25.50;38.90
79762;DHT22;69249;42.122;24.734;2023-07-09T05:22:03;25.50;38.20
79762;DHT22;69249;42.122;24.734;2023-07-09T05:24:29;25.50;38.50
79762;DHT22;69249;42.122;24.734;2023-07-09T05:26:55;25.60;38.10
79762;DHT22;69249;42.122;24.734;2023-07-09T05:29:21;25.80;38.20
79762;DHT22;69249;42.122;24.734;2023-07-09T05:31:47;25.80;38.60
79762;DHT22;69249;42.122;24.734;2023-07-09T05:34:13;25.90;37.70
79762;DHT22;69249;42.122;24.734;2023-07-09T05:36:39;26.00;37.00
79762;DHT22;69249;42.122;24.734;2023-07-09T05:39:04;26.00;37.40
79762;DHT22;69249;42.122;24.734;2023-07-09T05:41:30;26.00;37.50
79762;DHT22;69249;42.122;24.734;2023-07-09T05:43:56;26.10;37.10
79762;DHT22;69249;42.122;24.734;2023-07-09T05:46:22;26.10;36.60
79762;DHT22;69249;42.122;24.734;2023-07-09T05:48:48;26.20;36.50
79762;DHT22;69249;42.122;24.734;2023-07-09T05:51:14;26.20;36.10
79762;DHT22;69249;42.122;24.734;2023-07-09T05:53:40;26.20;36.50
79762;DHT22;69249;42.122;24.734;2023-07-09T05:56:07;26.10;36.00
79762;DHT22;69249;42.122;24.734;2023-07-09T05:58:32;26.10;35.90
79762;DHT22;69249;42.122;24.734;2023-07-09T06:00:58;26.20;36.10
79762;DHT22;69249;42.122;24.734;2023-07-09T06:03:26;26.10;36.70
79762;DHT22;69249;42.122;24.734;2023-07-09T06:05:52;26.10;36.50
79762;DHT22;69249;42.122;24.734;2023-07-09T06:08:19;26.10;36.50
79762;DHT22;69249;42.122;24.734;2023-07-09T06:10:56;26.20;36.50
79762;DHT22;69249;42.122;24.734;2023-07-09T06:13:23;26.20;36.50
79762;DHT22;69249;42.122;24.734;2023-07-09T06:15:51;26.20;36.50
79762;DHT22;69249;42.122;24.734;2023-07-09T06:18:17;26.20;36.50
79762;DHT22;69249;42.122;24.734;2023-07-09T06:20:49;26.30;36.20
79762;DHT22;69249;42.122;24.734;2023-07-09T06:23:16;26.50;35.40
79762;DHT22;69249;42.122;24.734;2023-07-09T06:25:42;26.50;35.00
79762;DHT22;69249;42.122;24.734;2023-07-09T06:28:08;26.50;35.20
79762;DHT22;69249;42.122;24.734;2023-07-09T06:30:34;26.60;35.10
79762;DHT22;69249;42.122;24.734;2023-07-09T06:33:01;26.60;35.60
79762;DHT22;69249;42.122;24.734;2023-07-09T06:35:26;26.70;35.50
79762;DHT22;69249;42.122;24.734;2023-07-09T06:37:52;26.90;34.80
79762;DHT22;69249;42.122;24.734;2023-07-09T06:40:18;26.90;35.00
79762;DHT22;69249;42.122;24.734;2023-07-09T06:42:44;27.00;34.80
79762;DHT22;69249;42.122;24.734;2023-07-09T06:45:10;27.10;34.90
79762;DHT22;69249;42.122;24.734;2023-07-09T06:47:35;27.00;34.60
79762;DHT22;69249;42.122;24.734;2023-07-09T06:50:01;27.10;34.50
79762;DHT22;69249;42.122;24.734;2023-07-09T06:52:26;27.30;33.90
79762;DHT22;69249;42.122;24.734;2023-07-09T06:54:52;27.30;34.70
79762;DHT22;69249;42.122;24.734;2023-07-09T06:57:18;27.20;34.30
79762;DHT22;69249;42.122;24.734;2023-07-09T06:59:43;27.20;34.20
79762;DHT22;69249;42.122;24.734;2023-07-09T07:02:09;27.20;34.20
79762;DHT22;69249;42.122;24.734;2023-07-09T07:04:35;27.30;34.00
79762;DHT22;69249;42.122;24.734;2023-07-09T07:07:00;27.40;34.60
79762;DHT22;69249;42.122;24.734;2023-07-09T07:09:27;27.40;34.30
79762;DHT22;69249;42.122;24.734;2023-07-09T07:11:52;27.30;34.60
79762;DHT22;69249;42.122;24.734;2023-07-09T07:14:18;27.40;34.20
79762;DHT22;69249;42.122;24.734;2023-07-09T07:16:44;27.50;33.90
79762;DHT22;69249;42.122;24.734;2023-07-09T07:19:09;27.60;34.30
79762;DHT22;69249;42.122;24.734;2023-07-09T07:21:35;27.70;33.60
79762;DHT22;69249;42.122;24.734;2023-07-09T07:24:01;27.90;33.70
79762;DHT22;69249;42.122;24.734;2023-07-09T07:26:26;27.90;33.50
79762;DHT22;69249;42.122;24.734;2023-07-09T07:28:52;28.00;33.00
79762;DHT22;69249;42.122;24.734;2023-07-09T07:31:18;28.10;33.40
79762;DHT22;69249;42.122;24.734;2023-07-09T07:33:43;28.20;32.20
79762;DHT22;69249;42.122;24.734;2023-07-09T07:36:10;28.30;32.80
79762;DHT22;69249;42.122;24.734;2023-07-09T07:38:35;28.40;32.40
79762;DHT22;69249;42.122;24.734;2023-07-09T07:41:02;28.20;32.80
79762;DHT22;69249;42.122;24.734;2023-07-09T07:43:27;28.20;32.70
79762;DHT22;69249;42.122;24.734;2023-07-09T07:45:53;28.40;32.90
79762;DHT22;69249;42.122;24.734;2023-07-09T07:48:19;28.50;32.20
79762;DHT22;69249;42.122;24.734;2023-07-09T07:50:46;28.50;30.90
79762;DHT22;69249;42.122;24.734;2023-07-09T07:53:14;28.50;30.80
79762;DHT22;69249;42.122;24.734;2023-07-09T07:55:41;28.40;31.70
79762;DHT22;69249;42.122;24.734;2023-07-09T07:58:10;28.40;32.10
79762;DHT22;69249;42.122;24.734;2023-07-09T08:00:36;28.40;31.70
79762;DHT22;69249;42.122;24.734;2023-07-09T08:03:03;28.50;31.30
79762;DHT22;69249;42.122;24.734;2023-07-09T08:05:28;28.60;31.10
79762;DHT22;69249;42.122;24.734;2023-07-09T08:07:54;28.70;31.10
79762;DHT22;69249;42.122;24.734;2023-07-09T08:10:20;28.70;30.20
79762;DHT22;69249;42.122;24.734;2023-07-09T08:12:45;28.80;30.00
79762;DHT22;69249;42.122;24.734;2023-07-09T08:15:11;28.90;30.40
79762;DHT22;69249;42.122;24.734;2023-07-09T08:17:36;29.00;31.20
79762;DHT22;69249;42.122;24.734;2023-07-09T08:20:02;29.00;30.20
79762;DHT22;69249;42.122;24.734;2023-07-09T08:22:28;29.10;30.40
79762;DHT22;69249;42.122;24.734;2023-07-09T08:24:54;29.20;30.30
79762;DHT22;69249;42.122;24.734;2023-07-09T08:27:19;29.40;29.80
79762;DHT22;69249;42.122;24.734;2023-07-09T08:29:46;29.60;29.60
79762;DHT22;69249;42.122;24.734;2023-07-09T08:32:12;29.80;29.20
79762;DHT22;69249;42.122;24.734;2023-07-09T08:34:39;29.80;29.30
79762;DHT22;69249;42.122;24.734;2023-07-09T08:37:06;29.90;28.40
79762;DHT22;69249;42.122;24.734;2023-07-09T08:39:32;29.90;28.80
79762;DHT22;69249;42.122;24.734;2023-07-09T08:42:02;29.90;28.90
79762;DHT22;69249;42.122;24.734;2023-07-09T08:45:00;30.00;28.00
79762;DHT22;69249;42.122;24.734;2023-07-09T08:50:22;30.00;28.60
79762;DHT22;69249;42.122;24.734;2023-07-09T08:52:51;30.10;28.60
79762;DHT22;69249;42.122;24.734;2023-07-09T08:55:22;29.90;28.40
79762;DHT22;69249;42.122;24.734;2023-07-09T08:58:05;29.90;28.70
79762;DHT22;69249;42.122;24.734;2023-07-09T09:00:54;30.00;29.10
79762;DHT22;69249;42.122;24.734;2023-07-09T09:03:27;30.10;28.70
79762;DHT22;69249;42.122;24.734;2023-07-09T09:05:55;30.10;28.50
79762;DHT22;69249;42.122;24.734;2023-07-09T09:08:41;30.10;28.70
79762;DHT22;69249;42.122;24.734;2023-07-09T09:13:39;30.30;28.20
79762;DHT22;69249;42.122;24.734;2023-07-09T09:16:29;30.30;27.80
79762;DHT22;69249;42.122;24.734;2023-07-09T09:18:58;30.50;27.80
79762;DHT22;69249;42.122;24.734;2023-07-09T09:23:57;30.60;26.40
79762;DHT22;69249;42.122;24.734;2023-07-09T09:26:26;30.70;26.40
79762;DHT22;69249;42.122;24.734;2023-07-09T09:28:54;30.70;26.60
79762;DHT22;69249;42.122;24.734;2023-07-09T09:31:19;30.70;26.80
79762;DHT22;69249;42.122;24.734;2023-07-09T09:33:47;30.70;27.30
79762;DHT22;69249;42.122;24.734;2023-07-09T09:36:22;30.70;26.80
79762;DHT22;69249;42.122;24.734;2023-07-09T09:38:48;30.80;27.10
79762;DHT22;69249;42.122;24.734;2023-07-09T09:41:22;30.90;26.40
79762;DHT22;69249;42.122;24.734;2023-07-09T09:43:52;31.00;25.70
79762;DHT22;69249;42.122;24.734;2023-07-09T09:46:27;31.10;25.40
79762;DHT22;69249;42.122;24.734;2023-07-09T09:48:59;31.10;25.90
79762;DHT22;69249;42.122;24.734;2023-07-09T09:51:26;31.20;24.80
79762;DHT22;69249;42.122;24.734;2023-07-09T09:54:02;31.20;25.00
79762;DHT22;69249;42.122;24.734;2023-07-09T09:56:36;31.20;25.90
79762;DHT22;69249;42.122;24.734;2023-07-09T09:59:03;31.30;25.60
79762;DHT22;69249;42.122;24.734;2023-07-09T10:01:34;31.30;25.30
79762;DHT22;69249;42.122;24.734;2023-07-09T10:04:04;31.30;24.60
79762;DHT22;69249;42.122;24.734;2023-07-09T10:06:36;31.30;24.90
79762;DHT22;69249;42.122;24.734;2023-07-09T10:11:46;31.40;24.20
79762;DHT22;69249;42.122;24.734;2023-07-09T10:16:59;31.30;24.70
79762;DHT22;69249;42.122;24.734;2023-07-09T10:22:24;31.40;24.40
79762;DHT22;69249;42.122;24.734;2023-07-09T10:24:59;31.40;23.90
79762;DHT22;69249;42.122;24.734;2023-07-09T10:28:02;31.40;24.00
79762;DHT22;69249;42.122;24.734;2023-07-09T10:33:55;31.50;24.30
79762;DHT22;69249;42.122;24.734;2023-07-09T10:39:19;31.60;24.10
79762;DHT22;69249;42.122;24.734;2023-07-09T10:41:49;31.40;24.20
79762;DHT22;69249;42.122;24.734;2023-07-09T10:44:23;31.50;23.60
79762;DHT22;69249;42.122;24.734;2023-07-09T10:46:55;31.60;24.00
79762;DHT22;69249;42.122;24.734;2023-07-09T10:49:21;31.70;23.70
79762;DHT22;69249;42.122;24.734;2023-07-09T10:52:06;31.90;23.40
79762;DHT22;69249;42.122;24.734;2023-07-09T10:57:17;31.80;22.80
79762;DHT22;69249;42.122;24.734;2023-07-09T10:59:47;31.70;23.20
79762;DHT22;69249;42.122;24.734;2023-07-09T11:02:25;31.70;23.80
79762;DHT22;69249;42.122;24.734;2023-07-09T11:04:56;31.70;23.00
79762;DHT22;69249;42.122;24.734;2023-07-09T11:10:32;31.80;24.30
79762;DHT22;69249;42.122;24.734;2023-07-09T11:15:31;32.30;22.70
79762;DHT22;69249;42.122;24.734;2023-07-09T11:17:58;32.60;22.10
79762;DHT22;69249;42.122;24.734;2023-07-09T11:20:32;32.90;22.10
79762;DHT22;69249;42.122;24.734;2023-07-09T11:23:15;33.30;22.60
79762;DHT22;69249;42.122;24.734;2023-07-09T11:25:45;34.10;21.90
79762;DHT22;69249;42.122;24.734;2023-07-09T11:28:11;35.50;21.10
79762;DHT22;69249;42.122;24.734;2023-07-09T11:30:54;38.00;20.80
79762;DHT22;69249;42.122;24.734;2023-07-09T11:33:25;41.00;17.80
79762;DHT22;69249;42.122;24.734;2023-07-09T11:35:52;42.20;16.70
79762;DHT22;69249;42.122;24.734;2023-07-09T11:38:21;44.00;15.20
79762;DHT22;69249;42.122;24.734;2023-07-09T11:40:48;46.00;14.10
79762;DHT22;69249;42.122;24.734;2023-07-09T11:45:56;47.20;12.80
79762;DHT22;69249;42.122;24.734;2023-07-09T11:48:26;48.50;12.10
79762;DHT22;69249;42.122;24.734;2023-07-09T11:50:54;49.90;11.70
79762;DHT22;69249;42.122;24.734;2023-07-09T11:56:08;54.50;9.60
79762;DHT22;69249;42.122;24.734;2023-07-09T11:58:34;55.30;8.90
79762;DHT22;69249;42.122;24.734;2023-07-09T12:01:00;55.10;8.60
79762;DHT22;69249;42.122;24.734;2023-07-09T12:03:34;54.00;8.60
79762;DHT22;69249;42.122;24.734;2023-07-09T12:06:13;52.10;9.20
79762;DHT22;69249;42.122;24.734;2023-07-09T12:08:43;49.70;10.60
79762;DHT22;69249;42.122;24.734;2023-07-09T12:11:29;47.30;11.50
79762;DHT22;69249;42.122;24.734;2023-07-09T12:14:02;45.20;12.80
79762;DHT22;69249;42.122;24.734;2023-07-09T12:16:31;43.50;13.40
79762;DHT22;69249;42.122;24.734;2023-07-09T12:18:58;42.00;14.80
79762;DHT22;69249;42.122;24.734;2023-07-09T12:21:25;40.60;15.50
79762;DHT22;69249;42.122;24.734;2023-07-09T12:23:51;39.50;16.60
79762;DHT22;69249;42.122;24.734;2023-07-09T12:26:19;38.70;17.20
79762;DHT22;69249;42.122;24.734;2023-07-09T12:28:56;38.00;17.40
79762;DHT22;69249;42.122;24.734;2023-07-09T12:31:28;37.40;18.40
79762;DHT22;69249;42.122;24.734;2023-07-09T12:33:54;37.10;18.80
79762;DHT22;69249;42.122;24.734;2023-07-09T12:36:20;36.60;19.20
79762;DHT22;69249;42.122;24.734;2023-07-09T12:38:49;36.50;19.10
79762;DHT22;69249;42.122;24.734;2023-07-09T12:41:28;36.20;19.20
79762;DHT22;69249;42.122;24.734;2023-07-09T12:43:55;35.80;18.80
79762;DHT22;69249;42.122;24.734;2023-07-09T12:46:25;35.60;19.40
79762;DHT22;69249;42.122;24.734;2023-07-09T12:48:50;35.20;20.50
79762;DHT22;69249;42.122;24.734;2023-07-09T12:51:25;35.00;20.90
79762;DHT22;69249;42.122;24.734;2023-07-09T12:54:16;35.00;21.10
79762;DHT22;69249;42.122;24.734;2023-07-09T12:56:43;35.00;20.90
79762;DHT22;69249;42.122;24.734;2023-07-09T13:01:49;35.00;20.70
79762;DHT22;69249;42.122;24.734;2023-07-09T13:04:16;34.70;20.90
79762;DHT22;69249;42.122;24.734;2023-07-09T13:06:42;34.80;20.50
79762;DHT22;69249;42.122;24.734;2023-07-09T13:09:20;34.80;20.80
79762;DHT22;69249;42.122;24.734;2023-07-09T13:11:47;34.60;21.30
79762;DHT22;69249;42.122;24.734;2023-07-09T13:14:25;34.60;21.30
79762;DHT22;69249;42.122;24.734;2023-07-09T13:16:51;34.60;21.90
79762;DHT22;69249;42.122;24.734;2023-07-09T13:19:17;34.50;21.50
79762;DHT22;69249;42.122;24.734;2023-07-09T13:21:44;34.40;21.90
79762;DHT22;69249;42.122;24.734;2023-07-09T13:24:20;34.50;22.30
79762;DHT22;69249;42.122;24.734;2023-07-09T13:26:47;34.50;22.00
79762;DHT22;69249;42.122;24.734;2023-07-09T13:29:15;34.50;21.90
79762;DHT22;69249;42.122;24.734;2023-07-09T13:31:41;34.20;22.30
79762;DHT22;69249;42.122;24.734;2023-07-09T13:34:18;34.20;21.90
79762;DHT22;69249;42.122;24.734;2023-07-09T13:36:44;34.10;21.80
79762;DHT22;69249;42.122;24.734;2023-07-09T13:39:12;34.00;22.30
79762;DHT22;69249;42.122;24.734;2023-07-09T13:41:39;33.90;23.00
79762;DHT22;69249;42.122;24.734;2023-07-09T13:44:13;33.70;23.00
79762;DHT22;69249;42.122;24.734;2023-07-09T13:46:39;33.70;22.90
79762;DHT22;69249;42.122;24.734;2023-07-09T13:49:18;33.80;22.90
79762;DHT22;69249;42.122;24.734;2023-07-09T13:51:49;33.50;23.20
79762;DHT22;69249;42.122;24.734;2023-07-09T13:54:21;33.70;23.40
79762;DHT22;69249;42.122;24.734;2023-07-09T13:56:47;33.90;23.10
79762;DHT22;69249;42.122;24.734;2023-07-09T13:59:21;34.00;22.80
79762;DHT22;69249;42.122;24.734;2023-07-09T14:01:48;34.10;23.10
79762;DHT22;69249;42.122;24.734;2023-07-09T14:04:16;34.30;22.90
79762;DHT22;69249;42.122;24.734;2023-07-09T14:06:43;34.50;22.30
79762;DHT22;69249;42.122;24.734;2023-07-09T14:09:11;34.40;22.80
79762;DHT22;69249;42.122;24.734;2023-07-09T14:11:43;34.30;22.80
79762;DHT22;69249;42.122;24.734;2023-07-09T14:14:19;34.40;23.30
79762;DHT22;69249;42.122;24.734;2023-07-09T14:16:46;34.50;22.80
79762;DHT22;69249;42.122;24.734;2023-07-09T14:19:15;34.50;22.30
79762;DHT22;69249;42.122;24.734;2023-07-09T14:21:41;34.50;22.30
79762;DHT22;69249;42.122;24.734;2023-07-09T14:24:27;34.50;22.70
79762;DHT22;69249;42.122;24.734;2023-07-09T14:26:56;34.70;22.40
79762;DHT22;69249;42.122;24.734;2023-07-09T14:29:23;35.00;22.70
79762;DHT22;69249;42.122;24.734;2023-07-09T14:31:49;35.00;21.70
79762;DHT22;69249;42.122;24.734;2023-07-09T14:34:24;35.00;22.40
79762;DHT22;69249;42.122;24.734;2023-07-09T14:36:52;35.00;21.90
79762;DHT22;69249;42.122;24.734;2023-07-09T14:39:18;35.20;21.90
79762;DHT22;69249;42.122;24.734;2023-07-09T14:41:44;35.20;21.80
79762;DHT22;69249;42.122;24.734;2023-07-09T14:44:29;35.30;21.90
79762;DHT22;69249;42.122;24.734;2023-07-09T14:46:57;35.20;21.90
79762;DHT22;69249;42.122;24.734;2023-07-09T14:49:24;35.30;21.40
79762;DHT22;69249;42.122;24.734;2023-07-09T14:51:50;35.20;21.10
79762;DHT22;69249;42.122;24.734;2023-07-09T14:54:24;35.20;21.00
79762;DHT22;69249;42.122;24.734;2023-07-09T14:56:51;35.00;21.30
79762;DHT22;69249;42.122;24.734;2023-07-09T14:59:17;34.90;21.90
79762;DHT22;69249;42.122;24.734;2023-07-09T15:01:44;34.60;22.10
79762;DHT22;69249;42.122;24.734;2023-07-09T15:06:53;34.40;22.00
79762;DHT22;69249;42.122;24.734;2023-07-09T15:09:24;34.40;22.50
79762;DHT22;69249;42.122;24.734;2023-07-09T15:12:13;34.40;22.50
79762;DHT22;69249;42.122;24.734;2023-07-09T15:14:39;34.50;22.50
79762;DHT22;69249;42.122;24.734;2023-07-09T15:17:04;34.60;22.40
79762;DHT22;69249;42.122;24.734;2023-07-09T15:19:30;34.40;23.00
79762;DHT22;69249;42.122;24.734;2023-07-09T15:21:56;34.50;22.70
79762;DHT22;69249;42.122;24.734;2023-07-09T15:24:31;34.40;24.10
79762;DHT22;69249;42.122;24.734;2023-07-09T15:26:58;34.30;23.20
79762;DHT22;69249;42.122;24.734;2023-07-09T15:29:26;34.30;23.60
79762;DHT22;69249;42.122;24.734;2023-07-09T15:31:51;34.40;23.10
79762;DHT22;69249;42.122;24.734;2023-07-09T15:34:18;34.50;22.90
79762;DHT22;69249;42.122;24.734;2023-07-09T15:36:49;34.60;22.60
79762;DHT22;69249;42.122;24.734;2023-07-09T15:39:16;34.70;22.60
79762;DHT22;69249;42.122;24.734;2023-07-09T15:41:42;34.80;22.70
79762;DHT22;69249;42.122;24.734;2023-07-09T15:44:13;34.70;23.10
79762;DHT22;69249;42.122;24.734;2023-07-09T15:46:52;34.70;23.70
79762;DHT22;69249;42.122;24.734;2023-07-09T15:49:19;34.50;23.30
79762;DHT22;69249;42.122;24.734;2023-07-09T15:51:45;34.50;23.70
79762;DHT22;69249;42.122;24.734;2023-07-09T15:54:18;34.40;23.10
79762;DHT22;69249;42.122;24.734;2023-07-09T15:56:46;34.30;23.30
79762;DHT22;69249;42.122;24.734;2023-07-09T15:59:34;34.30;23.40
79762;DHT22;69249;42.122;24.734;2023-07-09T16:02:01;34.20;23.10
79762;DHT22;69249;42.122;24.734;2023-07-09T16:04:28;33.90;23.30
79762;DHT22;69249;42.122;24.734;2023-07-09T16:06:54;33.90;23.40
79762;DHT22;69249;42.122;24.734;2023-07-09T16:09:19;33.90;24.90
79762;DHT22;69249;42.122;24.734;2023-07-09T16:11:51;33.80;24.50
79762;DHT22;69249;42.122;24.734;2023-07-09T16:16:50;33.70;24.50